createdAt,value
2019-04-30T00:01:17.022Z,102384.53
2019-04-30T00:04:45.146Z,102375.64
2019-04-30T00:07:58.416Z,102382.05
2019-04-30T00:11:06.431Z,102384.18
2019-04-30T00:14:15.562Z,102386.95
2019-04-30T00:17:25.644Z,102389.02
2019-04-30T00:20:37.043Z,102394.05
2019-04-30T00:23:43.294Z,102392.48
2019-04-30T00:26:52.594Z,102394.41
2019-04-30T00:30:07.331Z,102392.34
2019-04-30T00:33:15.285Z,102391.14
2019-04-30T00:36:22.067Z,102389.57
2019-04-30T00:39:30.811Z,102384.98
2019-04-30T00:42:40.912Z,102395.98
2019-04-30T00:45:49.608Z,102395.77
2019-04-30T00:49:08.793Z,102387.38
2019-04-30T00:52:08.513Z,102382.43
2019-04-30T00:55:17.144Z,102381.00
2019-04-30T00:58:36.065Z,102379.16
2019-04-30T01:02:02.961Z,102382.78
2019-04-30T01:05:16.136Z,102375.37
2019-04-30T01:08:27.616Z,102368.29
2019-04-30T01:11:35.524Z,102361.50
2019-04-30T01:14:54.497Z,102357.47
2019-04-30T01:18:03.064Z,102353.64
2019-04-30T01:21:13.309Z,102352.43
2019-04-30T01:24:23.488Z,102357.38
2019-04-30T01:27:34.024Z,102346.67
2019-04-30T01:30:43.353Z,102343.62
2019-04-30T01:33:51.978Z,102350.36
2019-04-30T01:37:00.603Z,102347.66
2019-04-30T01:40:13.579Z,102352.05
2019-04-30T01:43:23.193Z,102354.19
2019-04-30T01:46:30.269Z,102356.05
2019-04-30T01:49:42.891Z,102353.22
2019-04-30T01:52:55.474Z,102350.09
2019-04-30T01:56:21.955Z,102348.65
2019-04-30T01:59:49.560Z,102341.03
2019-04-30T02:02:59.259Z,102340.94
2019-04-30T02:06:19.716Z,102348.07
2019-04-30T02:09:28.753Z,102351.58
2019-04-30T02:12:39.265Z,102351.09
2019-04-30T02:15:49.274Z,102356.73
2019-04-30T02:18:59.685Z,102352.73
2019-04-30T02:22:09.522Z,102343.18
2019-04-30T02:25:19.553Z,102346.33
2019-04-30T02:28:29.017Z,102354.23
2019-04-30T02:31:40.567Z,102347.81
2019-04-30T02:34:55.799Z,102341.93
2019-04-30T02:38:34.459Z,102343.18
2019-04-30T02:41:44.380Z,102347.16
2019-04-30T02:45:04.251Z,102343.70
2019-04-30T02:48:13.412Z,102343.08
2019-04-30T02:51:25.370Z,102354.13
2019-04-30T02:54:35.550Z,102352.92
2019-04-30T02:57:44.389Z,102351.38
2019-04-30T03:00:53.101Z,102341.47
2019-04-30T03:04:01.829Z,102346.55
2019-04-30T03:07:10.473Z,102331.77
2019-04-30T03:10:19.860Z,102334.55
2019-04-30T03:13:29.947Z,102336.26
2019-04-30T03:17:00.103Z,102326.98
2019-04-30T03:20:45.989Z,102325.83
2019-04-30T03:24:12.978Z,102320.92
2019-04-30T03:27:24.586Z,102324.73
2019-04-30T03:30:32.507Z,102318.37
2019-04-30T03:33:42.611Z,102321.71
2019-04-30T03:37:02.302Z,102317.98
2019-04-30T03:40:13.148Z,102319.84
2019-04-30T03:43:22.115Z,102328.06
2019-04-30T03:46:30.712Z,102327.03
2019-04-30T03:49:40.259Z,102321.26
2019-04-30T03:53:00.781Z,102315.68
2019-04-30T03:56:09.547Z,102319.77
2019-04-30T03:59:19.954Z,102316.70
2019-04-30T04:02:42.006Z,102320.47
2019-04-30T04:05:55.707Z,102320.96
2019-04-30T04:09:14.494Z,102328.61
2019-04-30T04:12:44.625Z,102325.82
2019-04-30T04:15:59.781Z,102332.20
2019-04-30T04:19:19.621Z,102335.92
2019-04-30T04:22:26.269Z,102339.84
2019-04-30T04:25:35.005Z,102332.33
2019-04-30T04:28:43.707Z,102337.25
2019-04-30T04:31:52.442Z,102342.34
2019-04-30T04:35:01.162Z,102344.29
2019-04-30T04:38:12.261Z,102340.75
2019-04-30T04:41:19.803Z,102343.16
2019-04-30T04:44:29.496Z,102333.48
2019-04-30T04:47:40.178Z,102330.63
2019-04-30T04:50:50.191Z,102328.77
2019-04-30T04:54:03.137Z,102330.59
2019-04-30T04:57:17.653Z,102332.02
2019-04-30T05:00:22.648Z,102340.70
2019-04-30T05:03:34.419Z,102333.36
2019-04-30T05:06:46.176Z,102343.95
2019-04-30T05:09:54.790Z,102338.46
2019-04-30T05:13:13.793Z,102330.93
2019-04-30T05:16:22.469Z,102344.91
2019-04-30T05:19:31.210Z,102339.17
2019-04-30T05:22:41.499Z,102340.33
2019-04-30T05:25:50.157Z,102342.56
2019-04-30T05:28:59.440Z,102340.00
2019-04-30T05:32:19.686Z,102343.34
2019-04-30T05:35:31.110Z,102342.13
2019-04-30T05:38:41.146Z,102341.70
2019-04-30T05:41:49.897Z,102340.12
2019-04-30T05:44:59.264Z,102348.90
2019-04-30T05:48:08.949Z,102346.94
2019-04-30T05:51:19.383Z,102345.70
2019-04-30T05:54:29.150Z,102350.62
2019-04-30T05:57:52.427Z,102352.70
2019-04-30T06:00:49.918Z,102352.70
2019-04-30T06:03:59.475Z,102343.91
2019-04-30T06:07:08.610Z,102350.72
2019-04-30T06:10:39.739Z,102343.71
2019-04-30T06:14:04.267Z,102344.47
2019-04-30T06:17:15.434Z,102347.52
2019-04-30T06:20:24.232Z,102351.28
2019-04-30T06:23:32.876Z,102343.24
2019-04-30T06:26:41.626Z,102340.35
2019-04-30T06:29:51.753Z,102339.53
2019-04-30T06:33:02.449Z,102332.61
2019-04-30T06:36:12.629Z,102334.44
2019-04-30T06:39:21.421Z,102341.80
2019-04-30T06:42:30.428Z,102333.33
2019-04-30T06:45:38.983Z,102325.05
2019-04-30T06:48:50.846Z,102324.73
2019-04-30T06:51:58.822Z,102318.14
2019-04-30T06:55:09.437Z,102317.45
2019-04-30T06:58:29.141Z,102318.45
2019-04-30T07:01:38.850Z,102318.47
2019-04-30T07:04:49.111Z,102312.69
2019-04-30T07:08:15.960Z,102315.31
2019-04-30T07:11:39.091Z,102308.37
2019-04-30T07:14:49.362Z,102308.47
2019-04-30T07:17:59.192Z,102311.63
2019-04-30T07:21:08.735Z,102306.95
2019-04-30T07:24:20.783Z,102308.79
2019-04-30T07:27:31.938Z,102302.02
2019-04-30T07:30:39.497Z,102288.88
2019-04-30T07:33:53.087Z,102288.22
2019-04-30T07:37:11.817Z,102292.27
2019-04-30T07:40:09.972Z,102288.28
2019-04-30T07:43:29.021Z,102284.13
2019-04-30T07:46:41.084Z,102291.27
2019-04-30T07:49:52.902Z,102284.58
2019-04-30T07:53:05.658Z,102282.72
2019-04-30T07:56:24.104Z,102281.25
2019-04-30T07:59:20.768Z,102283.90
2019-04-30T08:02:36.731Z,102279.36
2019-04-30T08:05:43.963Z,102279.88
2019-04-30T08:08:57.299Z,102284.44
2019-04-30T08:12:22.243Z,102281.34
2019-04-30T08:15:24.788Z,102284.14
2019-04-30T08:18:34.529Z,102279.84
2019-04-30T08:21:54.714Z,102284.09
2019-04-30T08:25:03.277Z,102279.50
2019-04-30T08:28:11.971Z,102283.86
2019-04-30T08:31:21.986Z,102282.70
2019-04-30T08:34:41.016Z,102274.61
2019-04-30T08:37:49.878Z,102282.12
2019-04-30T08:41:00.762Z,102284.63
2019-04-30T08:44:09.386Z,102279.83
2019-04-30T08:47:20.948Z,102282.89
2019-04-30T08:50:29.674Z,102285.84
2019-04-30T08:53:49.241Z,102283.55
2019-04-30T08:56:59.510Z,102284.02
2019-04-30T09:00:11.844Z,102280.16
2019-04-30T09:03:21.594Z,102280.04
2019-04-30T09:06:30.634Z,102276.66
2019-04-30T09:09:39.449Z,102277.94
2019-04-30T09:12:51.893Z,102276.64
2019-04-30T09:15:59.595Z,102268.16
2019-04-30T09:19:09.775Z,102275.52
2019-04-30T09:22:19.493Z,102269.80
2019-04-30T09:25:28.874Z,102268.24
2019-04-30T09:28:49.421Z,102271.10
2019-04-30T09:31:59.459Z,102268.56
2019-04-30T09:35:09.569Z,102259.40
2019-04-30T09:38:19.526Z,102261.94
2019-04-30T09:41:28.841Z,102263.87
2019-04-30T09:44:39.011Z,102257.05
2019-04-30T09:47:47.832Z,102258.53
2019-04-30T09:50:56.915Z,102254.76
2019-04-30T09:54:06.676Z,102246.03
2019-04-30T09:57:15.713Z,102252.70
2019-04-30T10:00:24.771Z,102256.20
2019-04-30T10:03:34.263Z,102243.48
2019-04-30T10:06:43.527Z,102249.50
2019-04-30T10:10:02.876Z,102245.72
2019-04-30T10:13:11.439Z,102242.66
2019-04-30T10:16:33.332Z,102229.41
2019-04-30T10:19:42.003Z,102233.33
2019-04-30T10:22:50.644Z,102231.88
2019-04-30T10:25:59.473Z,102239.28
2019-04-30T10:29:08.311Z,102229.03
2019-04-30T10:32:18.595Z,102221.09
2019-04-30T10:35:28.574Z,102217.31
2019-04-30T10:38:39.262Z,102218.98
2019-04-30T10:41:47.778Z,102214.81
2019-04-30T10:45:00.019Z,102208.05
2019-04-30T10:48:06.828Z,102207.61
2019-04-30T10:51:16.689Z,102197.13
2019-04-30T10:54:28.917Z,102206.07
2019-04-30T10:57:37.343Z,102203.32
2019-04-30T11:00:47.081Z,102199.37
2019-04-30T11:03:55.714Z,102204.16
2019-04-30T11:07:04.748Z,102205.14
2019-04-30T11:10:13.475Z,102198.66
2019-04-30T11:13:22.231Z,102189.18
2019-04-30T11:16:30.805Z,102189.48
2019-04-30T11:19:39.608Z,102189.80
2019-04-30T11:22:48.671Z,102185.23
2019-04-30T11:25:59.635Z,102187.23
2019-04-30T11:29:07.775Z,102188.20
2019-04-30T11:32:22.630Z,102179.03
2019-04-30T11:35:41.472Z,102171.12
2019-04-30T11:38:50.181Z,102179.11
2019-04-30T11:42:03.836Z,102176.89
2019-04-30T11:45:15.228Z,102168.72
2019-04-30T11:48:23.749Z,102169.91
2019-04-30T11:51:32.482Z,102160.90
2019-04-30T11:54:54.322Z,102155.02
2019-04-30T11:58:02.831Z,102157.25
2019-04-30T12:01:15.919Z,102155.60
2019-04-30T12:04:24.569Z,102155.30
2019-04-30T12:07:59.772Z,102140.92
2019-04-30T12:11:31.309Z,102146.28
2019-04-30T12:14:39.934Z,102144.36
2019-04-30T12:17:48.714Z,102141.64
2019-04-30T12:20:58.711Z,102139.88
2019-04-30T12:24:07.348Z,102142.15
2019-04-30T12:27:26.337Z,102136.03
2019-04-30T12:30:36.094Z,102142.87
2019-04-30T12:33:44.923Z,102129.59
2019-04-30T12:36:53.531Z,102129.64
2019-04-30T12:40:02.299Z,102129.64
2019-04-30T12:43:10.997Z,102121.59
2019-04-30T12:46:21.270Z,102122.86
2019-04-30T12:49:46.608Z,102131.63
2019-04-30T12:52:59.654Z,102126.30
2019-04-30T12:56:38.083Z,102109.33
2019-04-30T12:59:46.877Z,102118.49
2019-04-30T13:02:55.459Z,102109.27
2019-04-30T13:06:06.092Z,102112.11
2019-04-30T13:09:15.924Z,102108.37
2019-04-30T13:12:25.579Z,102109.72
2019-04-30T13:15:34.413Z,102100.19
2019-04-30T13:18:44.370Z,102095.23
2019-04-30T13:21:52.952Z,102096.69
2019-04-30T13:25:12.867Z,102089.17
2019-04-30T13:28:23.220Z,102090.36
2019-04-30T13:31:31.821Z,102090.03
2019-04-30T13:34:48.694Z,102085.05
2019-04-30T13:38:07.301Z,102084.42
2019-04-30T13:41:34.853Z,102085.92
2019-04-30T13:44:45.224Z,102076.88
2019-04-30T13:47:53.965Z,102090.69
2019-04-30T13:51:02.690Z,102079.28
2019-04-30T13:54:11.567Z,102086.36
2019-04-30T13:57:34.082Z,102076.83
2019-04-30T14:00:41.485Z,102075.79
2019-04-30T14:03:59.022Z,102078.98
2019-04-30T14:07:18.780Z,102076.40
2019-04-30T14:10:29.429Z,102077.94
2019-04-30T14:13:39.821Z,102065.70
2019-04-30T14:16:48.554Z,102063.72
2019-04-30T14:19:55.844Z,102071.57
2019-04-30T14:23:05.977Z,102062.33
2019-04-30T14:26:19.275Z,102065.53
2019-04-30T14:29:25.616Z,102054.69
2019-04-30T14:32:34.255Z,102062.62
2019-04-30T14:35:42.906Z,102064.06
2019-04-30T14:38:51.463Z,102061.19
2019-04-30T14:42:02.205Z,102050.87
2019-04-30T14:45:37.216Z,102048.13
2019-04-30T14:48:51.201Z,102055.22
2019-04-30T14:52:00.780Z,102047.24
2019-04-30T14:55:29.356Z,102051.85
2019-04-30T14:59:13.572Z,102042.59
2019-04-30T15:02:30.305Z,102048.14
2019-04-30T15:05:48.187Z,102053.10
2019-04-30T15:08:49.516Z,102054.00
2019-04-30T15:11:58.677Z,102057.68
2019-04-30T15:15:09.392Z,102055.87
2019-04-30T15:18:29.029Z,102046.15
2019-04-30T15:21:36.412Z,102054.66
2019-04-30T15:24:59.134Z,102057.27
2019-04-30T15:28:17.638Z,102052.58
2019-04-30T15:31:26.602Z,102054.48
2019-04-30T15:34:35.386Z,102041.66
2019-04-30T15:37:44.320Z,102048.61
2019-04-30T15:41:03.697Z,102038.02
2019-04-30T15:44:45.422Z,102047.33
2019-04-30T15:47:53.308Z,102042.60
2019-04-30T15:51:28.176Z,102034.48
2019-04-30T15:54:36.868Z,102042.25
2019-04-30T15:58:03.703Z,102039.87
2019-04-30T16:02:53.435Z,102030.74
2019-04-30T16:05:54.569Z,102037.92
2019-04-30T16:09:05.813Z,102027.53
2019-04-30T16:12:50.536Z,102024.45
2019-04-30T16:16:19.210Z,102021.69
2019-04-30T16:19:28.807Z,102022.95
2019-04-30T16:22:39.974Z,102026.45
2019-04-30T16:25:48.821Z,102030.36
2019-04-30T16:28:58.613Z,102022.98
2019-04-30T16:32:09.273Z,102026.56
2019-04-30T16:35:19.719Z,102026.14
2019-04-30T16:38:28.936Z,102022.58
2019-04-30T16:41:49.572Z,102022.91
2019-04-30T16:45:00.558Z,102020.92
2019-04-30T16:48:09.827Z,102017.64
2019-04-30T16:51:19.423Z,102019.03
2019-04-30T16:54:29.233Z,102023.52
2019-04-30T16:57:39.648Z,102025.84
2019-04-30T17:00:49.266Z,102020.16
2019-04-30T17:04:39.044Z,102021.62
2019-04-30T17:08:13.837Z,102018.64
2019-04-30T17:11:38.742Z,102016.37
2019-04-30T17:14:49.281Z,102009.03
2019-04-30T17:17:58.663Z,102011.56
2019-04-30T17:21:09.739Z,102014.58
2019-04-30T17:24:19.394Z,102014.38
2019-04-30T17:27:29.367Z,102011.97
2019-04-30T17:30:39.299Z,102019.20
2019-04-30T17:33:48.376Z,102024.14
2019-04-30T17:36:59.043Z,102017.38
2019-04-30T17:40:19.430Z,102013.92
2019-04-30T17:43:28.009Z,102011.73
2019-04-30T17:46:38.534Z,102011.52
2019-04-30T17:49:48.437Z,102016.80
2019-04-30T17:53:09.685Z,102015.39
2019-04-30T17:56:18.390Z,102018.59
2019-04-30T17:59:27.087Z,102013.53
2019-04-30T18:02:35.838Z,102012.59
2019-04-30T18:05:46.374Z,102013.63
2019-04-30T18:08:56.122Z,102014.92
2019-04-30T18:12:04.750Z,102014.73
2019-04-30T18:15:18.524Z,102019.95
2019-04-30T18:18:33.352Z,102027.62
2019-04-30T18:22:10.772Z,102017.11
2019-04-30T18:25:30.830Z,102018.22
2019-04-30T18:28:38.009Z,102017.84
2019-04-30T18:31:46.612Z,102013.94
2019-04-30T18:34:55.199Z,102016.71
2019-04-30T18:38:03.770Z,102016.98
2019-04-30T18:41:12.440Z,102020.78
2019-04-30T18:44:20.960Z,102024.43
2019-04-30T18:47:39.994Z,102022.11
2019-04-30T18:50:59.067Z,102019.85
2019-04-30T18:54:07.707Z,102019.63
2019-04-30T18:57:16.349Z,102015.97
2019-04-30T19:00:39.532Z,102019.80
2019-04-30T19:03:49.238Z,102020.98
2019-04-30T19:07:01.543Z,102019.38
2019-04-30T19:10:19.957Z,102021.94
2019-04-30T19:13:47.241Z,102021.16
2019-04-30T19:17:19.457Z,102035.87
2019-04-30T19:20:46.734Z,102028.66
2019-04-30T19:24:08.627Z,102030.00
2019-04-30T19:27:18.650Z,102025.42
2019-04-30T19:30:39.023Z,102027.98
2019-04-30T19:33:48.946Z,102027.53
2019-04-30T19:36:58.568Z,102027.88
2019-04-30T19:40:18.990Z,102022.28
2019-04-30T19:43:28.562Z,102034.55
2019-04-30T19:46:48.767Z,102031.86
2019-04-30T19:49:59.493Z,102035.19
2019-04-30T19:53:10.063Z,102037.95
2019-04-30T19:56:20.603Z,102042.16
2019-04-30T19:59:29.471Z,102039.62
2019-04-30T20:02:48.727Z,102038.50
2019-04-30T20:06:09.033Z,102044.97
2019-04-30T20:09:19.379Z,102048.67
2019-04-30T20:12:29.041Z,102043.45
2019-04-30T20:15:39.291Z,102052.14
2019-04-30T20:18:49.105Z,102049.77
2019-04-30T20:21:59.503Z,102044.25
2019-04-30T20:25:09.207Z,102043.59
2019-04-30T20:28:38.581Z,102040.05
2019-04-30T20:31:38.840Z,102042.09
2019-04-30T20:34:48.925Z,102039.05
2019-04-30T20:38:20.039Z,102043.30
2019-04-30T20:41:29.294Z,102048.38
2019-04-30T20:44:38.959Z,102047.53
2019-04-30T20:47:49.589Z,102038.25
2019-04-30T20:51:01.054Z,102040.59
2019-04-30T20:54:09.139Z,102046.87
2019-04-30T20:57:19.848Z,102040.63
2019-04-30T21:00:28.000Z,102034.36
2019-04-30T21:03:36.516Z,102032.16
2019-04-30T21:06:45.034Z,102031.81
2019-04-30T21:10:04.034Z,102029.95
2019-04-30T21:13:12.701Z,102030.45
2019-04-30T21:16:21.224Z,102029.62
2019-04-30T21:19:29.945Z,102030.14
2019-04-30T21:22:38.859Z,102028.62
2019-04-30T21:25:49.153Z,102032.17
2019-04-30T21:29:10.412Z,102023.88
2019-04-30T21:32:32.757Z,102018.08
2019-04-30T21:35:50.715Z,102010.34
2019-04-30T21:38:59.505Z,102011.34
2019-04-30T21:42:09.270Z,102007.27
2019-04-30T21:45:18.436Z,102003.06
2019-04-30T21:48:28.718Z,102002.02
2019-04-30T21:51:40.000Z,102007.41
2019-04-30T21:54:48.696Z,101999.14
2019-04-30T21:57:59.258Z,102001.83
2019-04-30T22:01:22.735Z,101998.12
2019-04-30T22:04:41.890Z,101992.20
2019-04-30T22:07:51.196Z,102002.35
2019-04-30T22:11:10.224Z,101997.83
2019-04-30T22:14:18.844Z,102003.23
2019-04-30T22:17:29.180Z,101999.01
2019-04-30T22:20:38.893Z,101997.83
2019-04-30T22:23:47.501Z,101998.48
2019-04-30T22:27:06.276Z,101991.39
2019-04-30T22:30:15.056Z,101992.25
2019-04-30T22:33:23.594Z,101988.64
2019-04-30T22:36:38.650Z,101986.31
2019-04-30T22:40:01.589Z,101981.36
2019-04-30T22:43:10.262Z,101987.30
2019-04-30T22:46:19.541Z,101979.50
2019-04-30T22:49:28.259Z,101983.25
2019-04-30T22:52:36.922Z,101984.93
2019-04-30T22:55:45.440Z,101977.14
2019-04-30T22:58:53.941Z,101977.66
2019-04-30T23:02:34.835Z,101975.13
2019-04-30T23:05:43.565Z,101980.88
2019-04-30T23:08:52.185Z,101973.60
2019-04-30T23:12:00.807Z,101972.08
2019-04-30T23:15:10.714Z,101964.64
2019-04-30T23:18:32.167Z,101963.62
2019-04-30T23:21:40.335Z,101967.33
2019-04-30T23:24:48.843Z,101961.07
2019-04-30T23:27:57.399Z,101951.08
2019-04-30T23:31:05.994Z,101954.98
2019-04-30T23:34:18.077Z,101951.78
2019-04-30T23:37:36.455Z,101948.55
2019-04-30T23:40:50.620Z,101946.18
2019-04-30T23:43:59.649Z,101939.61
2019-04-30T23:47:08.168Z,101940.13
2019-04-30T23:50:27.140Z,101935.38
2019-04-30T23:53:35.971Z,101941.47
2019-04-30T23:56:44.707Z,101934.87
2019-04-30T23:59:53.366Z,101932.17
